Time;durP1;ratioP1;P1;durP2;ratioP2;P2;SDS_P1;SDS_P2;PMS_P1;PMS_P2;Temp;Humidity;BMP_temperature;BMP_pressure;BME280_temperature;BME280_humidity;BME280_pressure;Samples;Min_cycle;Max_cycle;Signal;HPM_P1;HPM_P2
2022/03/12 00:01:42;;;;;;;24.00;14.20;;;11.20;92.80;;;;;;5024511;28;20091;-80
2022/03/12 00:04:07;;;;;;;20.98;14.82;;;11.10;93.40;;;;;;5039038;28;20497;-80
2022/03/12 00:06:34;;;;;;;25.80;14.68;;;11.10;93.90;;;;;;5037249;28;20100;-80
2022/03/12 00:08:59;;;;;;;18.30;12.93;;;11.10;94.00;;;;;;5036484;28;20462;-80
2022/03/12 00:11:27;;;;;;;22.73;15.20;;;11.00;94.90;;;;;;5032999;28;20036;-80
2022/03/12 00:13:57;;;;;;;24.90;15.75;;;11.10;94.50;;;;;;5040719;28;20359;-81
2022/03/12 00:16:24;;;;;;;22.23;14.75;;;11.20;94.40;;;;;;5038198;28;20025;-81
2022/03/12 00:18:54;;;;;;;26.63;14.48;;;11.10;94.60;;;;;;5034362;28;20014;-80
2022/03/12 00:21:24;;;;;;;24.20;16.55;;;10.90;95.30;;;;;;5028531;28;20041;-79
2022/03/12 00:23:51;;;;;;;21.85;14.73;;;11.00;95.80;;;;;;5040644;28;20489;-82
2022/03/12 00:26:19;;;;;;;27.58;15.20;;;10.90;96.10;;;;;;5044042;28;20508;-82
2022/03/12 00:28:45;;;;;;;24.85;17.17;;;10.90;95.70;;;;;;5036947;28;20017;-81
2022/03/12 00:31:11;;;;;;;23.50;16.85;;;10.90;96.20;;;;;;5029108;28;20025;-79
2022/03/12 00:33:37;;;;;;;23.92;16.42;;;10.80;97.00;;;;;;5042175;28;20034;-79
2022/03/12 00:36:03;;;;;;;23.88;16.55;;;10.70;96.30;;;;;;5048784;28;20128;-79
2022/03/12 00:38:29;;;;;;;27.55;16.98;;;10.70;97.30;;;;;;5041804;28;20024;-80
2022/03/12 00:40:55;;;;;;;25.13;15.52;;;10.80;96.50;;;;;;5032538;28;20461;-79
2022/03/12 00:43:22;;;;;;;24.85;16.13;;;10.80;96.00;;;;;;5045237;28;20033;-79
2022/03/12 00:45:48;;;;;;;29.10;17.05;;;10.80;96.70;;;;;;5045269;28;20488;-80
2022/03/12 00:48:16;;;;;;;26.88;17.00;;;10.80;97.20;;;;;;5044443;28;20029;-80
2022/03/12 00:50:42;;;;;;;27.55;16.63;;;10.90;96.70;;;;;;5044538;28;20480;-79
2022/03/12 00:53:08;;;;;;;22.45;15.60;;;10.90;96.40;;;;;;5033097;28;20478;-80
2022/03/12 00:55:34;;;;;;;24.63;15.23;;;10.90;96.60;;;;;;5038130;28;20096;-80
2022/03/12 00:58:00;;;;;;;24.00;15.77;;;10.90;96.20;;;;;;5036331;28;20022;-80
2022/03/12 01:00:26;;;;;;;25.90;16.15;;;10.90;97.40;;;;;;5036990;28;20034;-80
2022/03/12 01:02:53;;;;;;;22.85;15.10;;;10.90;97.20;;;;;;5033062;28;20041;-81
2022/03/12 01:05:23;;;;;;;26.17;16.42;;;10.90;96.70;;;;;;5036441;28;20029;-81
2022/03/12 01:07:50;;;;;;;22.67;14.80;;;10.90;96.50;;;;;;5036710;28;20021;-81
2022/03/12 01:10:16;;;;;;;25.00;15.13;;;10.80;96.80;;;;;;5034894;28;20033;-81
2022/03/12 01:12:43;;;;;;;27.20;16.00;;;10.80;95.80;;;;;;5040443;28;20100;-80
2022/03/12 01:15:10;;;;;;;25.52;15.63;;;10.80;96.10;;;;;;5040108;28;20076;-81
2022/03/12 01:17:38;;;;;;;25.42;15.35;;;10.90;96.10;;;;;;5035381;28;20028;-81
2022/03/12 01:20:06;;;;;;;28.75;15.85;;;10.80;95.90;;;;;;5039198;28;20681;-81
2022/03/12 01:22:36;;;;;;;29.85;16.15;;;10.90;96.00;;;;;;5036659;28;20060;-81
2022/03/12 01:25:04;;;;;;;25.17;15.10;;;10.90;96.30;;;;;;5046173;28;20063;-80
2022/03/12 01:27:30;;;;;;;22.55;15.75;;;10.90;95.70;;;;;;5039538;28;20029;-81
2022/03/12 01:29:55;;;;;;;25.40;17.13;;;11.00;96.50;;;;;;5039720;28;20541;-80
2022/03/12 01:32:21;;;;;;;25.25;17.38;;;11.00;96.90;;;;;;5032334;28;20048;-80
2022/03/12 01:34:47;;;;;;;25.67;16.92;;;11.00;97.10;;;;;;5051350;28;20036;-80
2022/03/12 01:37:19;;;;;;;24.95;15.60;;;10.90;96.50;;;;;;5037766;28;20040;-80
2022/03/12 01:39:48;;;;;;;25.23;17.00;;;11.00;97.90;;;;;;5032612;28;20028;-80
2022/03/12 01:42:14;;;;;;;23.40;15.48;;;10.90;99.30;;;;;;5033170;28;20041;-80
2022/03/12 01:44:41;;;;;;;25.83;15.52;;;10.80;97.80;;;;;;5048714;28;20553;-80
2022/03/12 01:47:10;;;;;;;28.65;19.10;;;10.90;97.00;;;;;;5030010;28;20040;-80
2022/03/12 01:49:37;;;;;;;26.65;17.48;;;10.90;97.50;;;;;;5024340;28;20029;-81
2022/03/12 01:52:04;;;;;;;27.05;16.52;;;10.90;98.00;;;;;;5042930;28;20474;-80
2022/03/12 01:54:30;;;;;;;24.95;16.52;;;10.80;98.30;;;;;;5042434;28;20397;-81
2022/03/12 01:56:58;;;;;;;23.55;15.50;;;10.90;98.50;;;;;;5030189;28;20037;-80
2022/03/12 01:59:24;;;;;;;23.42;15.70;;;10.90;98.30;;;;;;5027418;28;20143;-81
2022/03/12 02:01:55;;;;;;;23.75;16.42;;;10.90;98.60;;;;;;5036220;28;20493;-81
2022/03/12 02:04:25;;;;;;;29.08;18.65;;;10.80;98.80;;;;;;5031736;28;20053;-80
2022/03/12 02:06:52;;;;;;;26.35;17.50;;;10.90;98.70;;;;;;5034447;28;20108;-80
2022/03/12 02:09:20;;;;;;;25.92;17.85;;;10.90;99.20;;;;;;5040303;28;20013;-80
2022/03/12 02:11:49;;;;;;;22.55;15.75;;;10.90;99.50;;;;;;5043186;28;20365;-80
2022/03/12 02:14:17;;;;;;;23.45;15.35;;;10.90;99.40;;;;;;5044707;28;20021;-80
2022/03/12 02:16:50;;;;;;;25.50;18.33;;;10.90;98.40;;;;;;5037733;28;20030;-80
2022/03/12 02:19:17;;;;;;;27.05;16.77;;;11.00;98.60;;;;;;5040678;28;20025;-80
2022/03/12 02:21:56;;;;;;;22.90;15.23;;;11.00;99.10;;;;;;5042348;28;20040;-80
2022/03/12 02:24:27;;;;;;;22.55;15.02;;;11.00;99.70;;;;;;5045073;28;20029;-80
2022/03/12 02:26:55;;;;;;;20.20;13.02;;;11.00;99.60;;;;;;5031883;28;20051;-80
2022/03/12 02:29:22;;;;;;;23.92;15.55;;;11.00;99.90;;;;;;5039841;28;20571;-81
2022/03/12 02:32:00;;;;;;;22.33;17.02;;;11.00;99.70;;;;;;5032664;28;20025;-80
2022/03/12 02:34:39;;;;;;;20.20;13.65;;;11.00;99.90;;;;;;5042130;28;20041;-80
2022/03/12 02:37:05;;;;;;;20.73;14.50;;;11.00;99.90;;;;;;5045722;28;20017;-80
2022/03/12 02:39:31;;;;;;;18.33;12.27;;;10.90;99.90;;;;;;5036809;28;20028;-80
2022/03/12 02:42:00;;;;;;;16.23;11.65;;;11.00;99.90;;;;;;5047949;28;20079;-80
2022/03/12 02:44:27;;;;;;;14.73;11.20;;;11.10;99.90;;;;;;5035507;28;20493;-80
2022/03/12 02:47:17;;;;;;;17.40;11.18;;;11.10;99.90;;;;;;5039891;28;20025;-81
2022/03/12 02:49:49;;;;;;;13.00;9.80;;;11.20;99.90;;;;;;5042983;28;20033;-81
2022/03/12 02:52:17;;;;;;;15.40;10.65;;;11.10;99.90;;;;;;5048499;28;20075;-81
2022/03/12 02:54:44;;;;;;;12.40;9.00;;;11.20;99.90;;;;;;5033055;28;20025;-81
2022/03/12 02:57:10;;;;;;;9.10;7.13;;;11.30;99.90;;;;;;5040378;28;20381;-81
2022/03/12 02:59:42;;;;;;;8.43;6.38;;;11.30;99.90;;;;;;5042176;28;20070;-81
2022/03/12 03:02:12;;;;;;;11.38;6.00;;;11.30;99.90;;;;;;5038615;28;20034;-81
2022/03/12 03:04:40;;;;;;;6.20;5.45;;;11.30;99.90;;;;;;5044435;28;20111;-81
2022/03/12 03:07:11;;;;;;;7.60;5.55;;;11.30;99.90;;;;;;5039803;28;20100;-81
2022/03/12 03:09:38;;;;;;;6.85;5.18;;;11.20;99.90;;;;;;5039375;28;20116;-81
2022/03/12 03:12:08;;;;;;;7.40;5.78;;;11.30;99.90;;;;;;5046136;28;20112;-81
2022/03/12 03:14:36;;;;;;;6.88;5.72;;;11.30;99.90;;;;;;5035886;28;20155;-85
2022/03/12 03:17:05;;;;;;;6.95;6.03;;;11.30;99.90;;;;;;5052361;28;20032;-82
2022/03/12 03:19:34;;;;;;;6.53;5.18;;;11.30;99.90;;;;;;5042024;28;20457;-81
2022/03/12 03:22:00;;;;;;;6.20;5.53;;;11.20;99.90;;;;;;5034867;28;20029;-81
2022/03/12 03:24:26;;;;;;;7.68;6.07;;;11.20;99.90;;;;;;5039236;28;20029;-82
2022/03/12 03:26:57;;;;;;;7.45;6.45;;;11.20;99.90;;;;;;5051210;28;20025;-82
2022/03/12 03:29:26;;;;;;;9.52;6.55;;;11.20;99.90;;;;;;5023487;28;20108;-82
2022/03/12 03:31:52;;;;;;;7.25;6.35;;;11.20;99.90;;;;;;5040927;28;20033;-82
2022/03/12 03:34:19;;;;;;;9.43;6.07;;;11.20;99.90;;;;;;5036129;28;20029;-83
2022/03/12 03:36:45;;;;;;;9.63;6.72;;;11.30;99.90;;;;;;5041884;28;20033;-83
2022/03/12 03:39:11;;;;;;;8.15;6.40;;;11.10;99.90;;;;;;5042157;28;20052;-82
2022/03/12 03:41:37;;;;;;;7.07;5.72;;;11.10;99.90;;;;;;5046110;28;20037;-81
2022/03/12 03:44:05;;;;;;;7.65;6.57;;;11.10;99.90;;;;;;5043810;28;20032;-82
2022/03/12 03:46:31;;;;;;;7.32;6.00;;;11.10;99.90;;;;;;5044995;28;20401;-82
2022/03/12 03:48:57;;;;;;;9.32;6.43;;;11.00;99.90;;;;;;5039879;28;20033;-82
2022/03/12 03:51:23;;;;;;;8.75;6.72;;;11.10;99.90;;;;;;5035757;28;20028;-83
2022/03/12 03:53:49;;;;;;;9.90;6.38;;;10.90;99.90;;;;;;5029539;28;20018;-82
2022/03/12 03:56:16;;;;;;;8.73;6.70;;;10.90;99.90;;;;;;5042179;28;20033;-81
2022/03/12 03:58:42;;;;;;;7.63;6.53;;;11.00;99.90;;;;;;5043779;28;20010;-82
2022/03/12 04:01:11;;;;;;;8.95;5.78;;;11.00;99.90;;;;;;5031475;28;20445;-82
2022/03/12 04:03:38;;;;;;;7.03;6.15;;;11.00;99.90;;;;;;5030385;28;20025;-82
2022/03/12 04:06:05;;;;;;;7.43;6.50;;;10.90;99.90;;;;;;5051761;28;20025;-81
2022/03/12 04:08:32;;;;;;;7.18;6.13;;;10.90;99.90;;;;;;5042779;28;20045;-83
2022/03/12 04:11:01;;;;;;;7.82;6.30;;;10.90;99.90;;;;;;5035790;28;20567;-82
2022/03/12 04:13:27;;;;;;;9.85;6.18;;;10.90;99.90;;;;;;5031028;28;20025;-82
2022/03/12 04:15:53;;;;;;;11.05;7.18;;;10.90;99.90;;;;;;5035346;28;20082;-82
2022/03/12 04:18:21;;;;;;;9.27;6.97;;;10.80;99.90;;;;;;5035956;28;20073;-81
2022/03/12 04:20:48;;;;;;;6.95;5.95;;;10.80;99.90;;;;;;5022070;28;20481;-81
2022/03/12 04:23:21;;;;;;;8.07;6.35;;;10.80;99.90;;;;;;5041019;28;20040;-82
2022/03/12 04:25:51;;;;;;;9.52;6.40;;;10.80;99.90;;;;;;5028116;28;20037;-81
2022/03/12 04:28:18;;;;;;;8.23;7.07;;;10.80;99.90;;;;;;5039900;28;20017;-82
2022/03/12 04:30:45;;;;;;;10.40;7.00;;;10.90;99.90;;;;;;5039764;28;20100;-82
2022/03/12 04:33:11;;;;;;;8.25;7.03;;;10.80;99.90;;;;;;5040194;28;20411;-83
2022/03/12 04:35:39;;;;;;;8.15;7.25;;;10.80;99.90;;;;;;5046772;28;20035;-82
2022/03/12 04:38:07;;;;;;;9.98;7.07;;;10.80;99.90;;;;;;5042055;28;20025;-82
2022/03/12 04:40:33;;;;;;;10.13;7.50;;;10.80;99.90;;;;;;5038360;28;20056;-82
2022/03/12 04:42:59;;;;;;;6.50;5.50;;;10.80;99.90;;;;;;5041917;28;20021;-82
2022/03/12 04:45:26;;;;;;;9.55;6.88;;;10.80;99.90;;;;;;5041443;28;20556;-81
2022/03/12 04:47:53;;;;;;;9.32;6.93;;;10.70;99.90;;;;;;5028991;28;20052;-82
2022/03/12 04:50:20;;;;;;;7.90;6.30;;;10.70;99.90;;;;;;5036665;28;20377;-81
2022/03/12 04:52:52;;;;;;;10.35;6.60;;;10.70;99.90;;;;;;5032872;28;20018;-83
2022/03/12 04:55:22;;;;;;;8.45;6.38;;;10.70;99.90;;;;;;5033700;28;20040;-81
2022/03/12 04:57:49;;;;;;;9.35;6.75;;;10.70;99.90;;;;;;5038795;28;20021;-81
2022/03/12 05:00:25;;;;;;;10.20;7.15;;;10.70;99.90;;;;;;5038254;28;20100;-81
2022/03/12 05:02:56;;;;;;;10.05;7.65;;;10.70;99.90;;;;;;5034568;28;20478;-81
2022/03/12 05:05:21;;;;;;;10.65;7.70;;;10.70;99.90;;;;;;5047325;28;20051;-82
2022/03/12 05:07:48;;;;;;;8.88;7.40;;;10.60;99.90;;;;;;5037778;28;20487;-81
2022/03/12 05:10:18;;;;;;;9.70;8.10;;;10.70;99.90;;;;;;5038993;28;20023;-82
2022/03/12 05:12:48;;;;;;;9.95;7.82;;;10.70;99.90;;;;;;5029138;28;20033;-82
2022/03/12 05:15:15;;;;;;;9.00;7.30;;;10.70;99.90;;;;;;5043595;28;20063;-82
2022/03/12 05:17:49;;;;;;;10.82;7.25;;;10.60;99.90;;;;;;5031655;28;20026;-82
2022/03/12 05:20:23;;;;;;;10.80;7.15;;;10.60;99.90;;;;;;5040436;28;20028;-82
2022/03/12 05:22:49;;;;;;;8.98;7.28;;;10.60;99.90;;;;;;5033796;28;20036;-82
2022/03/12 05:25:18;;;;;;;9.73;7.07;;;10.60;99.90;;;;;;5039406;28;20029;-82
2022/03/12 05:27:45;;;;;;;9.43;7.55;;;10.60;99.90;;;;;;5043150;28;20046;-83
2022/03/12 05:30:11;;;;;;;10.98;8.05;;;10.50;99.90;;;;;;5029654;28;20447;-82
2022/03/12 05:32:37;;;;;;;9.45;7.68;;;10.50;99.90;;;;;;5034231;28;20040;-82
2022/03/12 05:35:03;;;;;;;8.30;7.38;;;10.50;99.90;;;;;;5031138;28;20363;-82
2022/03/12 05:37:28;;;;;;;12.07;8.73;;;10.50;99.90;;;;;;5044359;28;20486;-81
2022/03/12 05:39:54;;;;;;;9.73;6.82;;;10.50;99.90;;;;;;5037429;28;20025;-81
2022/03/12 05:42:22;;;;;;;9.48;7.80;;;10.50;99.90;;;;;;5046412;28;20039;-81
2022/03/12 05:44:54;;;;;;;11.07;7.82;;;10.50;99.90;;;;;;5039305;28;20141;-81
2022/03/12 05:47:21;;;;;;;13.98;7.90;;;10.50;99.90;;;;;;5031558;28;20116;-82
2022/03/12 05:49:48;;;;;;;9.98;8.02;;;10.50;99.90;;;;;;5035107;28;20052;-81
2022/03/12 05:52:14;;;;;;;9.82;7.32;;;10.40;99.90;;;;;;5041123;28;20021;-81
2022/03/12 05:54:40;;;;;;;11.95;8.45;;;10.30;99.90;;;;;;5032000;28;20544;-82
2022/03/12 05:57:05;;;;;;;10.35;8.57;;;10.40;99.90;;;;;;5045829;28;20025;-81
2022/03/12 05:59:31;;;;;;;11.05;8.48;;;10.40;99.90;;;;;;5024448;28;20083;-81
2022/03/12 06:01:57;;;;;;;10.80;8.18;;;10.40;99.90;;;;;;5042665;28;20043;-82
2022/03/12 06:04:26;;;;;;;13.13;8.73;;;10.40;99.90;;;;;;5034899;28;20033;-81
2022/03/12 06:06:56;;;;;;;13.25;8.38;;;10.30;99.90;;;;;;5033199;28;20477;-82
2022/03/12 06:09:22;;;;;;;10.50;8.00;;;10.30;99.90;;;;;;5032722;28;20195;-82
2022/03/12 06:11:52;;;;;;;12.30;8.80;;;10.30;99.90;;;;;;5035371;28;20127;-82
2022/03/12 06:14:18;;;;;;;10.00;8.98;;;10.20;99.90;;;;;;5028702;28;20034;-83
2022/03/12 06:16:46;;;;;;;11.63;8.13;;;10.20;99.90;;;;;;5036582;28;20022;-82
2022/03/12 06:19:11;;;;;;;11.90;8.48;;;10.20;99.90;;;;;;5025175;28;20025;-82
2022/03/12 06:21:37;;;;;;;11.35;8.55;;;10.20;99.90;;;;;;5039183;28;20043;-82
2022/03/12 06:24:03;;;;;;;10.52;8.30;;;10.20;99.90;;;;;;5037939;28;20462;-82
2022/03/12 06:26:35;;;;;;;10.00;7.85;;;10.20;99.90;;;;;;5039938;28;20080;-82
2022/03/12 06:29:03;;;;;;;10.95;7.57;;;10.20;99.90;;;;;;5044157;28;20025;-81
2022/03/12 06:31:31;;;;;;;9.75;7.25;;;10.20;99.90;;;;;;5035768;28;20040;-81
2022/03/12 06:33:58;;;;;;;9.73;7.53;;;10.30;99.90;;;;;;5030759;28;20026;-81
2022/03/12 06:36:24;;;;;;;12.05;7.47;;;10.20;99.90;;;;;;5029094;28;20406;-81
2022/03/12 06:38:50;;;;;;;10.23;7.60;;;10.20;99.90;;;;;;5035591;28;20492;-80
2022/03/12 06:41:20;;;;;;;12.40;8.95;;;10.20;99.90;;;;;;5015736;28;20038;-81
2022/03/12 06:43:46;;;;;;;9.95;8.05;;;10.10;99.90;;;;;;5033598;28;20448;-81
2022/03/12 06:46:16;;;;;;;11.02;8.40;;;10.10;99.90;;;;;;5036707;28;20029;-80
2022/03/12 06:48:42;;;;;;;11.88;8.23;;;10.10;99.90;;;;;;5035789;28;20030;-81
2022/03/12 06:51:13;;;;;;;11.98;8.55;;;10.10;99.90;;;;;;5049023;28;20048;-81
2022/03/12 06:53:39;;;;;;;11.77;8.05;;;10.10;99.90;;;;;;5042573;28;20025;-81
2022/03/12 06:56:09;;;;;;;11.32;8.10;;;10.10;99.90;;;;;;5038608;28;20115;-81
2022/03/12 06:58:36;;;;;;;12.30;8.30;;;10.00;99.90;;;;;;5040078;28;20021;-81
2022/03/12 07:01:02;;;;;;;13.40;8.57;;;10.00;99.90;;;;;;5040155;28;20041;-81
2022/03/12 07:03:28;;;;;;;9.20;7.32;;;10.10;99.90;;;;;;5040802;28;20164;-81
2022/03/12 07:05:54;;;;;;;11.35;8.05;;;10.10;99.90;;;;;;5036085;28;20109;-81
2022/03/12 07:08:20;;;;;;;13.20;8.55;;;10.20;99.90;;;;;;5034273;28;20083;-81
2022/03/12 07:10:47;;;;;;;11.23;8.15;;;10.20;99.90;;;;;;5043364;28;20552;-81
2022/03/12 07:13:13;;;;;;;10.93;8.85;;;10.30;99.90;;;;;;5043636;28;20020;-81
2022/03/12 07:15:38;;;;;;;14.93;9.43;;;10.30;99.90;;;;;;5035935;28;20389;-82
2022/03/12 07:18:04;;;;;;;10.90;7.57;;;10.40;99.90;;;;;;5034229;28;20092;-80
2022/03/12 07:20:30;;;;;;;10.80;8.55;;;10.40;99.90;;;;;;5022887;28;20083;-82
2022/03/12 07:22:56;;;;;;;11.77;8.52;;;10.40;99.90;;;;;;5036782;28;20033;-83
2022/03/12 07:25:22;;;;;;;12.10;8.65;;;10.50;99.90;;;;;;5046190;28;20043;-82
2022/03/12 07:27:47;;;;;;;11.43;8.82;;;10.60;99.90;;;;;;5044948;28;20092;-82
2022/03/12 07:30:14;;;;;;;12.23;8.75;;;10.60;99.90;;;;;;5045304;28;20594;-83
2022/03/12 07:32:42;;;;;;;10.13;7.53;;;10.60;99.90;;;;;;5043646;28;20017;-82
2022/03/12 07:35:10;;;;;;;10.13;7.63;;;10.80;99.90;;;;;;5039702;28;20466;-82
2022/03/12 07:37:36;;;;;;;8.80;6.20;;;10.70;99.90;;;;;;5053592;28;20055;-83
2022/03/12 07:40:02;;;;;;;11.00;7.13;;;10.80;99.90;;;;;;5042742;28;20061;-81
2022/03/12 07:42:28;;;;;;;9.75;6.93;;;10.90;99.90;;;;;;5028904;28;20038;-83
2022/03/12 07:44:54;;;;;;;10.25;7.32;;;10.90;99.90;;;;;;5041919;28;20102;-82
2022/03/12 07:47:19;;;;;;;12.07;7.15;;;10.90;99.90;;;;;;5035568;28;20053;-83
2022/03/12 07:49:46;;;;;;;9.88;7.32;;;11.10;99.90;;;;;;5029953;28;20109;-84
2022/03/12 07:52:12;;;;;;;10.30;7.40;;;11.00;99.90;;;;;;5043808;28;20470;-83
2022/03/12 07:54:38;;;;;;;11.77;6.88;;;11.10;99.90;;;;;;5032664;28;20030;-82
2022/03/12 07:57:04;;;;;;;10.68;7.40;;;11.20;99.90;;;;;;5040830;28;20020;-82
2022/03/12 07:59:30;;;;;;;11.15;7.18;;;11.30;99.90;;;;;;5036043;28;20033;-82
2022/03/12 08:01:57;;;;;;;10.63;6.80;;;11.30;99.90;;;;;;5039424;28;20525;-82
2022/03/12 08:04:23;;;;;;;8.75;6.22;;;11.40;99.90;;;;;;5034569;28;20497;-83
2022/03/12 08:06:50;;;;;;;11.65;6.82;;;11.50;99.90;;;;;;5033291;28;20032;-83
2022/03/12 08:09:15;;;;;;;9.60;6.25;;;11.60;99.90;;;;;;5039962;28;20122;-89
2022/03/12 08:11:41;;;;;;;9.25;6.43;;;11.60;99.90;;;;;;5036526;28;20063;-88
2022/03/12 08:14:16;;;;;;;9.73;5.85;;;11.60;99.90;;;;;;5034081;28;20025;-87
2022/03/12 08:16:44;;;;;;;10.80;6.63;;;11.70;99.90;;;;;;5042819;28;20018;-87
2022/03/12 08:19:10;;;;;;;9.60;5.75;;;11.80;99.90;;;;;;5027180;28;20032;-89
2022/03/12 08:21:37;;;;;;;9.52;6.78;;;11.90;99.90;;;;;;5036489;28;20033;-89
2022/03/12 08:24:10;;;;;;;10.07;5.88;;;12.00;99.90;;;;;;5041669;28;20080;-86
2022/03/12 08:26:41;;;;;;;7.57;6.43;;;12.00;99.90;;;;;;5038656;28;20060;-88
2022/03/12 08:29:09;;;;;;;10.95;6.90;;;12.10;99.90;;;;;;5025832;28;20128;-88
2022/03/12 08:31:35;;;;;;;8.63;5.82;;;12.30;99.90;;;;;;5044187;28;20016;-89
2022/03/12 08:34:01;;;;;;;8.65;6.85;;;12.40;99.90;;;;;;5043450;28;20071;-87
2022/03/12 08:36:28;;;;;;;11.18;6.63;;;12.50;99.90;;;;;;5016834;28;20026;-87
2022/03/12 08:38:55;;;;;;;9.02;6.40;;;12.50;99.90;;;;;;5028492;28;20029;-84
2022/03/12 08:41:21;;;;;;;14.20;6.18;;;12.50;99.90;;;;;;5030289;28;20422;-82
2022/03/12 08:43:49;;;;;;;8.48;5.40;;;12.50;99.90;;;;;;5034583;28;20017;-84
2022/03/12 08:46:15;;;;;;;10.77;6.38;;;12.50;99.90;;;;;;5037308;28;20025;-80
2022/03/12 08:48:41;;;;;;;11.68;6.05;;;12.70;99.90;;;;;;5044090;28;20107;-84
2022/03/12 08:51:07;;;;;;;10.13;5.80;;;12.80;99.90;;;;;;5041620;28;20131;-85
2022/03/12 08:53:34;;;;;;;10.13;5.32;;;12.90;99.90;;;;;;5034723;28;20486;-87
2022/03/12 08:56:02;;;;;;;9.15;4.57;;;13.00;99.90;;;;;;5040544;28;20107;-85
2022/03/12 08:58:30;;;;;;;7.13;4.80;;;13.00;99.90;;;;;;5031133;28;20033;-85
2022/03/12 09:01:01;;;;;;;10.48;5.35;;;13.00;99.90;;;;;;5034641;28;20148;-85
2022/03/12 09:03:27;;;;;;;12.65;6.10;;;13.10;99.90;;;;;;5033374;28;20029;-85
2022/03/12 09:05:53;;;;;;;7.25;5.03;;;13.10;99.90;;;;;;5036434;28;20144;-86
2022/03/12 09:08:21;;;;;;;7.70;4.20;;;13.20;99.90;;;;;;5041731;28;20056;-84
2022/03/12 09:10:47;;;;;;;9.23;5.07;;;13.20;99.90;;;;;;5053369;28;20029;-88
2022/03/12 09:13:15;;;;;;;7.75;4.72;;;13.30;99.90;;;;;;5032974;28;20108;-87
2022/03/12 09:15:43;;;;;;;9.82;5.13;;;13.30;99.90;;;;;;5033479;28;20017;-86
2022/03/12 09:18:09;;;;;;;7.93;4.65;;;13.40;99.90;;;;;;5043253;28;20040;-86
2022/03/12 09:20:38;;;;;;;8.80;4.50;;;13.40;99.90;;;;;;5034756;28;20018;-86
2022/03/12 09:23:06;;;;;;;8.85;3.83;;;13.40;99.90;;;;;;5043617;28;20478;-87
2022/03/12 09:25:31;;;;;;;6.30;4.20;;;13.60;99.90;;;;;;5053200;28;20035;-86
2022/03/12 09:27:58;;;;;;;7.72;4.25;;;13.70;99.90;;;;;;5032203;28;20097;-86
2022/03/12 09:30:23;;;;;;;6.93;3.88;;;13.80;99.90;;;;;;5036822;28;20394;-87
2022/03/12 09:32:49;;;;;;;6.32;3.40;;;13.80;99.90;;;;;;5035685;28;20033;-86
2022/03/12 09:35:16;;;;;;;9.15;3.70;;;14.00;99.90;;;;;;5033052;28;20033;-87
2022/03/12 09:37:42;;;;;;;7.45;3.78;;;14.00;99.90;;;;;;5034251;28;20532;-85
2022/03/12 09:40:10;;;;;;;6.43;3.05;;;14.10;99.90;;;;;;5051052;28;20170;-86
2022/03/12 09:42:37;;;;;;;7.85;3.55;;;14.20;99.90;;;;;;5050851;28;20040;-89
2022/03/12 09:45:03;;;;;;;5.18;3.50;;;14.20;99.90;;;;;;5044739;28;20022;-87
2022/03/12 09:47:29;;;;;;;8.60;3.63;;;14.20;99.90;;;;;;5038249;28;20081;-86
2022/03/12 09:49:56;;;;;;;8.25;3.28;;;14.20;99.90;;;;;;5037779;28;20099;-87
2022/03/12 09:52:22;;;;;;;7.85;2.90;;;14.20;99.90;;;;;;5049871;28;20036;-88
2022/03/12 09:54:49;;;;;;;5.28;2.80;;;14.30;99.90;;;;;;5033910;28;20029;-89
2022/03/12 09:57:16;;;;;;;4.75;3.35;;;14.30;99.90;;;;;;5055520;28;20029;-85
2022/03/12 09:59:42;;;;;;;9.18;3.53;;;14.30;99.90;;;;;;5042532;28;20022;-88
2022/03/12 10:02:08;;;;;;;7.72;4.13;;;14.40;99.90;;;;;;5037316;28;20075;-88
2022/03/12 10:04:34;;;;;;;6.00;3.22;;;14.40;99.90;;;;;;5045587;28;20146;-87
2022/03/12 10:07:01;;;;;;;8.95;3.08;;;14.30;99.90;;;;;;5045423;28;20044;-89
2022/03/12 10:09:28;;;;;;;6.40;3.08;;;14.40;99.90;;;;;;5038713;28;20017;-88
2022/03/12 10:11:54;;;;;;;6.38;2.75;;;14.50;99.90;;;;;;5041130;28;20049;-89
2022/03/12 10:14:24;;;;;;;5.53;2.78;;;14.60;99.90;;;;;;5042180;28;20017;-88
2022/03/12 10:16:56;;;;;;;7.28;3.20;;;14.80;99.90;;;;;;5052705;28;20029;-88
2022/03/12 10:19:21;;;;;;;6.68;2.80;;;14.80;99.90;;;;;;5043187;28;20092;-89
2022/03/12 10:21:52;;;;;;;8.27;3.10;;;14.80;99.90;;;;;;5040689;28;20060;-89
2022/03/12 10:24:19;;;;;;;5.82;3.15;;;14.90;99.90;;;;;;5034540;28;20227;-88
2022/03/12 10:26:46;;;;;;;8.07;3.17;;;14.90;99.90;;;;;;5055380;28;20033;-88
2022/03/12 10:29:12;;;;;;;6.28;3.17;;;14.80;99.90;;;;;;5043218;28;20033;-88
2022/03/12 10:31:44;;;;;;;8.95;3.25;;;15.00;99.90;;;;;;5042426;28;20072;-88
2022/03/12 10:34:28;;;;;;;7.07;2.78;;;14.80;99.90;;;;;;5033032;28;20022;-87
2022/03/12 10:36:57;;;;;;;7.35;3.13;;;14.80;99.90;;;;;;5031049;28;20057;-88
2022/03/12 10:39:34;;;;;;;7.20;2.78;;;14.90;99.90;;;;;;5027929;28;20031;-83
2022/03/12 10:42:09;;;;;;;5.88;2.60;;;15.10;99.90;;;;;;5037556;28;20026;-88
2022/03/12 10:44:39;;;;;;;4.18;2.40;;;15.40;99.90;;;;;;5030336;28;20076;-80
2022/03/12 10:47:19;;;;;;;4.55;2.42;;;15.60;99.90;;;;;;5034378;28;20013;-80
2022/03/12 10:49:56;;;;;;;6.78;2.50;;;15.80;99.90;;;;;;5033286;28;20034;-79
2022/03/12 10:52:22;;;;;;;4.55;2.33;;;15.80;99.90;;;;;;5026505;28;20378;-78
2022/03/12 10:54:49;;;;;;;5.53;2.30;;;15.90;99.90;;;;;;5034051;28;20434;-79
2022/03/12 10:57:17;;;;;;;7.10;2.75;;;16.00;99.90;;;;;;5023845;28;20069;-78
2022/03/12 10:59:42;;;;;;;5.80;2.10;;;16.10;99.90;;;;;;5036984;28;20017;-82
2022/03/12 11:02:09;;;;;;;9.40;3.90;;;16.30;99.90;;;;;;5033299;28;20079;-83
2022/03/12 11:04:35;;;;;;;4.55;2.40;;;16.30;99.90;;;;;;5036229;28;20028;-83
2022/03/12 11:07:25;;;;;;;4.85;2.50;;;16.30;99.90;;;;;;5042472;28;20398;-75
2022/03/12 11:09:52;;;;;;;5.63;2.70;;;16.30;99.90;;;;;;5031369;28;20049;-85
2022/03/12 11:12:31;;;;;;;6.70;2.40;;;16.40;99.90;;;;;;5031634;28;20485;-80
2022/03/12 11:15:05;;;;;;;5.85;2.08;;;16.60;99.90;;;;;;5035651;28;20562;-82
2022/03/12 11:17:43;;;;;;;4.57;2.20;;;16.70;99.40;;;;;;5035546;28;20033;-81
2022/03/12 11:20:22;;;;;;;5.45;2.17;;;16.60;99.90;;;;;;5030818;28;20569;-83
2022/03/12 11:23:04;;;;;;;4.50;2.15;;;16.50;99.90;;;;;;5034859;28;20045;-82
2022/03/12 11:25:30;;;;;;;5.68;2.35;;;16.70;99.30;;;;;;5029548;28;20059;-84
2022/03/12 11:28:00;;;;;;;6.72;1.98;;;16.70;99.80;;;;;;5032307;28;20052;-82
2022/03/12 11:30:30;;;;;;;8.48;2.33;;;16.60;99.90;;;;;;5025742;28;20478;-83
2022/03/12 11:33:07;;;;;;;6.20;2.08;;;16.60;98.30;;;;;;5028936;28;20021;-87
2022/03/12 11:35:44;;;;;;;6.80;2.45;;;16.70;99.90;;;;;;5029908;28;20034;-86
2022/03/12 11:38:18;;;;;;;5.55;2.00;;;16.70;99.20;;;;;;5047741;28;20081;-85
2022/03/12 11:40:46;;;;;;;8.18;2.10;;;16.70;99.90;;;;;;5032458;28;20026;-89
2022/03/12 11:43:27;;;;;;;5.72;2.10;;;16.80;99.20;;;;;;5040494;28;20033;-88
2022/03/12 11:45:55;;;;;;;4.93;2.00;;;16.80;99.50;;;;;;5035884;28;20448;-88
2022/03/12 11:48:21;;;;;;;9.52;2.55;;;16.90;98.90;;;;;;5044462;28;20056;-88
2022/03/12 11:50:47;;;;;;;6.05;1.83;;;16.90;98.20;;;;;;5035406;28;20029;-87
2022/03/12 11:53:18;;;;;;;4.88;1.88;;;16.90;99.00;;;;;;5041300;28;20045;-87
2022/03/12 11:55:51;;;;;;;5.95;2.45;;;16.80;98.50;;;;;;5033267;28;20095;-87
2022/03/12 11:58:20;;;;;;;6.30;2.97;;;16.70;98.60;;;;;;5041764;28;20113;-84
2022/03/12 12:00:49;;;;;;;9.52;2.95;;;16.70;98.80;;;;;;5028985;28;20022;-84
2022/03/12 12:03:16;;;;;;;10.50;3.05;;;17.00;99.00;;;;;;5031130;28;20060;-83
2022/03/12 12:05:47;;;;;;;6.57;2.58;;;17.00;98.90;;;;;;5032824;28;20034;-83
2022/03/12 12:08:13;;;;;;;6.72;2.50;;;17.10;99.00;;;;;;5037504;28;20029;-82
2022/03/12 12:10:42;;;;;;;5.50;1.77;;;17.20;98.50;;;;;;5034655;28;20063;-84
2022/03/12 12:13:08;;;;;;;4.75;1.85;;;17.20;97.80;;;;;;5047282;28;20055;-84
2022/03/12 12:15:36;;;;;;;8.45;1.98;;;17.20;98.00;;;;;;5028787;28;20220;-84
2022/03/12 12:18:03;;;;;;;5.13;2.00;;;17.30;97.60;;;;;;5026687;28;20439;-85
2022/03/12 12:20:29;;;;;;;6.68;1.73;;;17.30;97.50;;;;;;5035165;28;20068;-85
2022/03/12 12:23:01;;;;;;;12.73;3.10;;;17.30;97.70;;;;;;5042132;28;20038;-85
2022/03/12 12:25:31;;;;;;;6.83;1.93;;;17.10;97.80;;;;;;5040375;28;20018;-87
2022/03/12 12:27:56;;;;;;;5.45;2.15;;;17.20;98.10;;;;;;5034615;28;20375;-86
2022/03/12 12:30:25;;;;;;;5.97;1.58;;;17.30;98.00;;;;;;5034631;28;20055;-85
2022/03/12 12:32:51;;;;;;;7.57;2.28;;;17.40;96.80;;;;;;5044388;28;20088;-83
2022/03/12 12:35:23;;;;;;;7.88;2.20;;;17.30;97.00;;;;;;5037663;28;20040;-87
2022/03/12 12:37:57;;;;;;;4.63;1.95;;;17.40;97.50;;;;;;5048541;28;20113;-86
2022/03/12 12:40:37;;;;;;;6.35;2.20;;;17.30;97.20;;;;;;5043700;28;20021;-85
2022/03/12 12:43:09;;;;;;;9.38;2.22;;;17.10;97.50;;;;;;5030164;28;20038;-83
2022/03/12 12:45:46;;;;;;;3.70;2.17;;;17.10;97.40;;;;;;5031941;28;20024;-83